sensor_id;sensor_type;location;lat;lon;timestamp;P1;durP1;ratioP1;P2;durP2;ratioP2
53010;SDS011;42803;55.762;38.084;2022-09-09T00:01:22;5.57;;;1.58;;
53010;SDS011;42803;55.762;38.084;2022-09-09T00:04:03;2.17;;;1.60;;
53010;SDS011;42803;55.762;38.084;2022-09-09T00:06:43;2.53;;;1.73;;
53010;SDS011;42803;55.762;38.084;2022-09-09T00:09:15;3.08;;;1.63;;
53010;SDS011;42803;55.762;38.084;2022-09-09T00:11:46;2.40;;;1.95;;
53010;SDS011;42803;55.762;38.084;2022-09-09T00:14:21;2.47;;;1.75;;
53010;SDS011;42803;55.762;38.084;2022-09-09T00:16:58;4.82;;;1.60;;
53010;SDS011;42803;55.762;38.084;2022-09-09T00:19:31;3.90;;;1.92;;
53010;SDS011;42803;55.762;38.084;2022-09-09T00:22:12;2.13;;;1.60;;
53010;SDS011;42803;55.762;38.084;2022-09-09T00:24:44;2.05;;;1.45;;
53010;SDS011;42803;55.762;38.084;2022-09-09T00:27:16;3.55;;;1.80;;
53010;SDS011;42803;55.762;38.084;2022-09-09T00:29:53;3.00;;;1.63;;
53010;SDS011;42803;55.762;38.084;2022-09-09T00:32:29;4.95;;;1.90;;
53010;SDS011;42803;55.762;38.084;2022-09-09T00:35:03;2.70;;;1.75;;
53010;SDS011;42803;55.762;38.084;2022-09-09T00:37:43;3.10;;;1.90;;
53010;SDS011;42803;55.762;38.084;2022-09-09T00:40:17;2.13;;;1.52;;
53010;SDS011;42803;55.762;38.084;2022-09-09T00:42:55;1.30;;;1.20;;
53010;SDS011;42803;55.762;38.084;2022-09-09T00:45:47;1.90;;;1.40;;
53010;SDS011;42803;55.762;38.084;2022-09-09T00:48:42;2.72;;;1.75;;
53010;SDS011;42803;55.762;38.084;2022-09-09T00:51:23;3.92;;;1.58;;
53010;SDS011;42803;55.762;38.084;2022-09-09T00:54:08;4.13;;;1.60;;
53010;SDS011;42803;55.762;38.084;2022-09-09T00:56:53;2.72;;;1.85;;
53010;SDS011;42803;55.762;38.084;2022-09-09T00:59:32;2.97;;;1.35;;
53010;SDS011;42803;55.762;38.084;2022-09-09T01:02:16;2.10;;;1.58;;
53010;SDS011;42803;55.762;38.084;2022-09-09T01:05:00;2.60;;;1.60;;
53010;SDS011;42803;55.762;38.084;2022-09-09T01:07:35;3.83;;;1.35;;
53010;SDS011;42803;55.762;38.084;2022-09-09T01:10:07;3.65;;;1.90;;
53010;SDS011;42803;55.762;38.084;2022-09-09T01:12:44;2.28;;;1.40;;
53010;SDS011;42803;55.762;38.084;2022-09-09T01:15:20;2.20;;;1.27;;
53010;SDS011;42803;55.762;38.084;2022-09-09T01:17:55;1.97;;;1.20;;
53010;SDS011;42803;55.762;38.084;2022-09-09T01:20:36;1.65;;;1.30;;
53010;SDS011;42803;55.762;38.084;2022-09-09T01:23:16;3.33;;;1.30;;
53010;SDS011;42803;55.762;38.084;2022-09-09T01:26:14;1.88;;;1.25;;
53010;SDS011;42803;55.762;38.084;2022-09-09T01:28:47;2.95;;;1.30;;
53010;SDS011;42803;55.762;38.084;2022-09-09T01:31:26;1.98;;;1.30;;
53010;SDS011;42803;55.762;38.084;2022-09-09T01:33:59;2.78;;;1.50;;
53010;SDS011;42803;55.762;38.084;2022-09-09T01:36:31;3.17;;;1.30;;
53010;SDS011;42803;55.762;38.084;2022-09-09T01:39:07;4.32;;;1.20;;
53010;SDS011;42803;55.762;38.084;2022-09-09T01:41:37;2.70;;;1.42;;
53010;SDS011;42803;55.762;38.084;2022-09-09T01:44:12;1.95;;;1.40;;
53010;SDS011;42803;55.762;38.084;2022-09-09T01:46:44;3.45;;;1.20;;
53010;SDS011;42803;55.762;38.084;2022-09-09T01:49:16;1.67;;;1.33;;
53010;SDS011;42803;55.762;38.084;2022-09-09T01:51:46;4.32;;;2.13;;
53010;SDS011;42803;55.762;38.084;2022-09-09T01:54:24;1.85;;;1.20;;
53010;SDS011;42803;55.762;38.084;2022-09-09T01:57:00;2.67;;;1.60;;
53010;SDS011;42803;55.762;38.084;2022-09-09T01:59:49;2.00;;;1.35;;
53010;SDS011;42803;55.762;38.084;2022-09-09T02:02:30;4.45;;;1.13;;
53010;SDS011;42803;55.762;38.084;2022-09-09T02:05:15;1.50;;;1.00;;
53010;SDS011;42803;55.762;38.084;2022-09-09T02:07:55;3.95;;;1.27;;
53010;SDS011;42803;55.762;38.084;2022-09-09T02:10:42;1.65;;;1.15;;
53010;SDS011;42803;55.762;38.084;2022-09-09T02:13:30;2.33;;;1.13;;
53010;SDS011;42803;55.762;38.084;2022-09-09T02:16:05;2.50;;;1.17;;
53010;SDS011;42803;55.762;38.084;2022-09-09T02:18:38;2.17;;;1.17;;
53010;SDS011;42803;55.762;38.084;2022-09-09T02:21:11;1.83;;;1.50;;
53010;SDS011;42803;55.762;38.084;2022-09-09T02:23:42;1.88;;;1.38;;
53010;SDS011;42803;55.762;38.084;2022-09-09T02:26:14;1.38;;;1.17;;
53010;SDS011;42803;55.762;38.084;2022-09-09T02:28:56;1.52;;;1.20;;
53010;SDS011;42803;55.762;38.084;2022-09-09T02:31:27;2.00;;;1.20;;
53010;SDS011;42803;55.762;38.084;2022-09-09T02:34:02;1.10;;;0.85;;
53010;SDS011;42803;55.762;38.084;2022-09-09T02:36:34;3.50;;;1.40;;
53010;SDS011;42803;55.762;38.084;2022-09-09T02:39:06;2.35;;;1.25;;
53010;SDS011;42803;55.762;38.084;2022-09-09T02:41:40;1.45;;;1.30;;
53010;SDS011;42803;55.762;38.084;2022-09-09T02:44:12;1.98;;;0.93;;
53010;SDS011;42803;55.762;38.084;2022-09-09T02:46:54;1.80;;;1.30;;
53010;SDS011;42803;55.762;38.084;2022-09-09T02:49:44;2.00;;;1.55;;
53010;SDS011;42803;55.762;38.084;2022-09-09T02:52:20;2.55;;;1.10;;
53010;SDS011;42803;55.762;38.084;2022-09-09T02:57:29;2.08;;;1.20;;
53010;SDS011;42803;55.762;38.084;2022-09-09T03:00:03;2.10;;;1.58;;
53010;SDS011;42803;55.762;38.084;2022-09-09T03:02:34;2.17;;;1.30;;
53010;SDS011;42803;55.762;38.084;2022-09-09T03:05:06;1.92;;;1.33;;
53010;SDS011;42803;55.762;38.084;2022-09-09T03:07:35;1.48;;;1.13;;
53010;SDS011;42803;55.762;38.084;2022-09-09T03:10:05;2.88;;;1.48;;
53010;SDS011;42803;55.762;38.084;2022-09-09T03:12:36;1.05;;;0.95;;
53010;SDS011;42803;55.762;38.084;2022-09-09T03:15:07;4.38;;;1.20;;
53010;SDS011;42803;55.762;38.084;2022-09-09T03:17:39;3.00;;;1.30;;
53010;SDS011;42803;55.762;38.084;2022-09-09T03:20:08;1.27;;;1.13;;
53010;SDS011;42803;55.762;38.084;2022-09-09T03:22:38;1.40;;;1.30;;
53010;SDS011;42803;55.762;38.084;2022-09-09T03:25:07;1.58;;;1.20;;
53010;SDS011;42803;55.762;38.084;2022-09-09T03:27:37;2.63;;;1.45;;
53010;SDS011;42803;55.762;38.084;2022-09-09T03:30:09;3.10;;;1.70;;
53010;SDS011;42803;55.762;38.084;2022-09-09T03:32:39;3.35;;;1.30;;
53010;SDS011;42803;55.762;38.084;2022-09-09T03:35:14;6.60;;;3.65;;
53010;SDS011;42803;55.762;38.084;2022-09-09T03:37:44;2.42;;;1.38;;
53010;SDS011;42803;55.762;38.084;2022-09-09T03:40:15;2.13;;;1.00;;
53010;SDS011;42803;55.762;38.084;2022-09-09T03:42:46;1.88;;;1.15;;
53010;SDS011;42803;55.762;38.084;2022-09-09T03:45:20;1.95;;;1.30;;
53010;SDS011;42803;55.762;38.084;2022-09-09T03:47:49;3.78;;;1.48;;
53010;SDS011;42803;55.762;38.084;2022-09-09T03:50:18;1.13;;;0.80;;
53010;SDS011;42803;55.762;38.084;2022-09-09T03:52:47;1.65;;;1.20;;
53010;SDS011;42803;55.762;38.084;2022-09-09T03:55:21;2.35;;;1.67;;
53010;SDS011;42803;55.762;38.084;2022-09-09T03:57:50;1.75;;;1.30;;
53010;SDS011;42803;55.762;38.084;2022-09-09T04:00:21;3.13;;;2.00;;
53010;SDS011;42803;55.762;38.084;2022-09-09T04:02:52;2.35;;;1.38;;
53010;SDS011;42803;55.762;38.084;2022-09-09T04:05:21;1.85;;;1.50;;
53010;SDS011;42803;55.762;38.084;2022-09-09T04:07:51;1.77;;;1.40;;
53010;SDS011;42803;55.762;38.084;2022-09-09T04:10:21;2.22;;;1.40;;
53010;SDS011;42803;55.762;38.084;2022-09-09T04:12:52;2.30;;;1.33;;
53010;SDS011;42803;55.762;38.084;2022-09-09T04:15:22;6.00;;;1.50;;
53010;SDS011;42803;55.762;38.084;2022-09-09T04:17:52;3.42;;;1.45;;
53010;SDS011;42803;55.762;38.084;2022-09-09T04:20:20;2.13;;;1.60;;
53010;SDS011;42803;55.762;38.084;2022-09-09T04:22:51;2.92;;;1.35;;
53010;SDS011;42803;55.762;38.084;2022-09-09T04:25:20;1.40;;;1.30;;
53010;SDS011;42803;55.762;38.084;2022-09-09T04:27:52;2.15;;;1.95;;
53010;SDS011;42803;55.762;38.084;2022-09-09T04:30:24;4.28;;;1.77;;
53010;SDS011;42803;55.762;38.084;2022-09-09T04:32:54;1.92;;;1.40;;
53010;SDS011;42803;55.762;38.084;2022-09-09T04:35:24;4.40;;;1.95;;
53010;SDS011;42803;55.762;38.084;2022-09-09T04:37:55;3.28;;;1.73;;
53010;SDS011;42803;55.762;38.084;2022-09-09T04:40:25;1.52;;;1.40;;
53010;SDS011;42803;55.762;38.084;2022-09-09T04:42:54;1.98;;;1.38;;
53010;SDS011;42803;55.762;38.084;2022-09-09T04:45:25;2.92;;;1.27;;
53010;SDS011;42803;55.762;38.084;2022-09-09T04:47:54;1.85;;;1.45;;
53010;SDS011;42803;55.762;38.084;2022-09-09T04:50:23;2.65;;;1.38;;
53010;SDS011;42803;55.762;38.084;2022-09-09T04:52:59;2.75;;;1.70;;
53010;SDS011;42803;55.762;38.084;2022-09-09T04:55:29;2.03;;;1.50;;
53010;SDS011;42803;55.762;38.084;2022-09-09T04:58:02;2.30;;;1.63;;
53010;SDS011;42803;55.762;38.084;2022-09-09T05:00:34;1.70;;;1.60;;
53010;SDS011;42803;55.762;38.084;2022-09-09T05:03:06;1.40;;;1.10;;
53010;SDS011;42803;55.762;38.084;2022-09-09T05:05:36;3.60;;;1.50;;
53010;SDS011;42803;55.762;38.084;2022-09-09T05:08:06;1.75;;;1.25;;
53010;SDS011;42803;55.762;38.084;2022-09-09T05:10:38;2.47;;;1.40;;
53010;SDS011;42803;55.762;38.084;2022-09-09T05:13:09;3.30;;;1.58;;
53010;SDS011;42803;55.762;38.084;2022-09-09T05:15:39;2.95;;;1.42;;
53010;SDS011;42803;55.762;38.084;2022-09-09T05:18:10;1.58;;;1.25;;
53010;SDS011;42803;55.762;38.084;2022-09-09T05:20:40;1.65;;;1.00;;
53010;SDS011;42803;55.762;38.084;2022-09-09T05:23:10;1.27;;;1.15;;
53010;SDS011;42803;55.762;38.084;2022-09-09T05:25:40;2.92;;;1.33;;
53010;SDS011;42803;55.762;38.084;2022-09-09T05:28:09;1.92;;;1.20;;
53010;SDS011;42803;55.762;38.084;2022-09-09T05:30:40;1.25;;;1.10;;
53010;SDS011;42803;55.762;38.084;2022-09-09T05:33:10;4.20;;;1.08;;
53010;SDS011;42803;55.762;38.084;2022-09-09T05:35:39;1.52;;;1.15;;
53010;SDS011;42803;55.762;38.084;2022-09-09T05:38:08;2.97;;;1.33;;
53010;SDS011;42803;55.762;38.084;2022-09-09T05:40:38;1.92;;;1.50;;
53010;SDS011;42803;55.762;38.084;2022-09-09T05:43:09;1.13;;;1.00;;
53010;SDS011;42803;55.762;38.084;2022-09-09T05:45:38;1.23;;;1.10;;
53010;SDS011;42803;55.762;38.084;2022-09-09T05:48:09;1.63;;;0.95;;
53010;SDS011;42803;55.762;38.084;2022-09-09T05:50:38;1.65;;;0.80;;
53010;SDS011;42803;55.762;38.084;2022-09-09T05:53:07;2.30;;;1.13;;
53010;SDS011;42803;55.762;38.084;2022-09-09T05:55:36;1.42;;;1.00;;
53010;SDS011;42803;55.762;38.084;2022-09-09T05:58:05;1.15;;;1.05;;
53010;SDS011;42803;55.762;38.084;2022-09-09T06:00:34;0.82;;;0.80;;
53010;SDS011;42803;55.762;38.084;2022-09-09T06:03:04;1.63;;;0.80;;
53010;SDS011;42803;55.762;38.084;2022-09-09T06:05:35;0.73;;;0.73;;
53010;SDS011;42803;55.762;38.084;2022-09-09T06:08:04;1.10;;;1.00;;
53010;SDS011;42803;55.762;38.084;2022-09-09T06:10:34;2.88;;;1.30;;
53010;SDS011;42803;55.762;38.084;2022-09-09T06:13:03;1.73;;;1.10;;
53010;SDS011;42803;55.762;38.084;2022-09-09T06:15:32;0.82;;;0.80;;
53010;SDS011;42803;55.762;38.084;2022-09-09T06:18:03;0.90;;;0.90;;
53010;SDS011;42803;55.762;38.084;2022-09-09T06:20:32;1.17;;;0.80;;
53010;SDS011;42803;55.762;38.084;2022-09-09T06:23:03;3.95;;;1.05;;
53010;SDS011;42803;55.762;38.084;2022-09-09T06:25:33;0.82;;;0.70;;
53010;SDS011;42803;55.762;38.084;2022-09-09T06:28:02;1.00;;;0.80;;
53010;SDS011;42803;55.762;38.084;2022-09-09T06:30:31;1.48;;;0.90;;
53010;SDS011;42803;55.762;38.084;2022-09-09T06:33:00;0.80;;;0.73;;
53010;SDS011;42803;55.762;38.084;2022-09-09T06:35:29;0.93;;;0.70;;
53010;SDS011;42803;55.762;38.084;2022-09-09T06:37:59;1.08;;;0.77;;
53010;SDS011;42803;55.762;38.084;2022-09-09T06:40:29;2.05;;;1.00;;
53010;SDS011;42803;55.762;38.084;2022-09-09T06:42:59;0.90;;;0.70;;
53010;SDS011;42803;55.762;38.084;2022-09-09T06:45:34;1.90;;;0.80;;
53010;SDS011;42803;55.762;38.084;2022-09-09T06:48:04;0.70;;;0.70;;
53010;SDS011;42803;55.762;38.084;2022-09-09T06:50:33;2.25;;;0.80;;
53010;SDS011;42803;55.762;38.084;2022-09-09T06:53:04;0.50;;;0.50;;
53010;SDS011;42803;55.762;38.084;2022-09-09T06:55:34;1.20;;;0.60;;
53010;SDS011;42803;55.762;38.084;2022-09-09T06:58:07;1.60;;;0.50;;
53010;SDS011;42803;55.762;38.084;2022-09-09T07:00:37;0.68;;;0.60;;
53010;SDS011;42803;55.762;38.084;2022-09-09T07:03:06;0.50;;;0.50;;
53010;SDS011;42803;55.762;38.084;2022-09-09T07:05:36;0.65;;;0.65;;
53010;SDS011;42803;55.762;38.084;2022-09-09T07:08:05;0.50;;;0.50;;
53010;SDS011;42803;55.762;38.084;2022-09-09T07:10:35;2.33;;;0.70;;
53010;SDS011;42803;55.762;38.084;2022-09-09T07:13:05;0.50;;;0.50;;
53010;SDS011;42803;55.762;38.084;2022-09-09T07:15:34;0.88;;;0.70;;
53010;SDS011;42803;55.762;38.084;2022-09-09T07:18:03;0.70;;;0.43;;
53010;SDS011;42803;55.762;38.084;2022-09-09T07:20:33;0.98;;;0.50;;
53010;SDS011;42803;55.762;38.084;2022-09-09T07:23:02;1.00;;;0.80;;
53010;SDS011;42803;55.762;38.084;2022-09-09T07:25:31;0.57;;;0.50;;
53010;SDS011;42803;55.762;38.084;2022-09-09T07:28:02;0.75;;;0.60;;
53010;SDS011;42803;55.762;38.084;2022-09-09T07:30:31;1.25;;;0.60;;
53010;SDS011;42803;55.762;38.084;2022-09-09T07:33:00;1.00;;;0.50;;
53010;SDS011;42803;55.762;38.084;2022-09-09T07:35:31;0.50;;;0.50;;
53010;SDS011;42803;55.762;38.084;2022-09-09T07:38:00;3.42;;;0.70;;
53010;SDS011;42803;55.762;38.084;2022-09-09T07:40:30;0.88;;;0.50;;
53010;SDS011;42803;55.762;38.084;2022-09-09T07:42:59;0.90;;;0.40;;
53010;SDS011;42803;55.762;38.084;2022-09-09T07:45:30;0.55;;;0.55;;
53010;SDS011;42803;55.762;38.084;2022-09-09T07:48:00;0.90;;;0.50;;
53010;SDS011;42803;55.762;38.084;2022-09-09T07:50:30;0.63;;;0.50;;
53010;SDS011;42803;55.762;38.084;2022-09-09T07:52:59;0.80;;;0.50;;
53010;SDS011;42803;55.762;38.084;2022-09-09T07:55:29;0.75;;;0.50;;
53010;SDS011;42803;55.762;38.084;2022-09-09T07:57:58;1.23;;;0.52;;
53010;SDS011;42803;55.762;38.084;2022-09-09T08:00:27;0.60;;;0.60;;
53010;SDS011;42803;55.762;38.084;2022-09-09T08:02:59;0.90;;;0.50;;
53010;SDS011;42803;55.762;38.084;2022-09-09T08:05:29;0.50;;;0.50;;
53010;SDS011;42803;55.762;38.084;2022-09-09T08:07:58;0.50;;;0.50;;
53010;SDS011;42803;55.762;38.084;2022-09-09T08:10:28;0.80;;;0.40;;
53010;SDS011;42803;55.762;38.084;2022-09-09T08:12:59;0.38;;;0.38;;
53010;SDS011;42803;55.762;38.084;2022-09-09T08:15:45;0.60;;;0.50;;
53010;SDS011;42803;55.762;38.084;2022-09-09T08:18:15;0.50;;;0.50;;
53010;SDS011;42803;55.762;38.084;2022-09-09T08:20:45;0.68;;;0.47;;
53010;SDS011;42803;55.762;38.084;2022-09-09T08:23:14;0.45;;;0.45;;
53010;SDS011;42803;55.762;38.084;2022-09-09T08:25:43;0.60;;;0.60;;
53010;SDS011;42803;55.762;38.084;2022-09-09T08:28:13;0.50;;;0.47;;
53010;SDS011;42803;55.762;38.084;2022-09-09T08:30:42;0.68;;;0.50;;
53010;SDS011;42803;55.762;38.084;2022-09-09T08:33:11;4.28;;;0.52;;
53010;SDS011;42803;55.762;38.084;2022-09-09T08:35:50;0.55;;;0.50;;
53010;SDS011;42803;55.762;38.084;2022-09-09T08:38:20;0.40;;;0.40;;
53010;SDS011;42803;55.762;38.084;2022-09-09T08:40:49;0.68;;;0.68;;
53010;SDS011;42803;55.762;38.084;2022-09-09T08:43:26;0.93;;;0.73;;
53010;SDS011;42803;55.762;38.084;2022-09-09T08:46:01;0.73;;;0.65;;
53010;SDS011;42803;55.762;38.084;2022-09-09T08:48:42;1.25;;;0.50;;
53010;SDS011;42803;55.762;38.084;2022-09-09T08:51:22;0.53;;;0.53;;
53010;SDS011;42803;55.762;38.084;2022-09-09T08:53:55;0.70;;;0.52;;
53010;SDS011;42803;55.762;38.084;2022-09-09T08:56:31;1.67;;;0.60;;
53010;SDS011;42803;55.762;38.084;2022-09-09T08:59:02;0.50;;;0.50;;
53010;SDS011;42803;55.762;38.084;2022-09-09T09:01:44;0.70;;;0.70;;
53010;SDS011;42803;55.762;38.084;2022-09-09T09:04:42;0.50;;;0.50;;
53010;SDS011;42803;55.762;38.084;2022-09-09T09:07:25;0.60;;;0.60;;
53010;SDS011;42803;55.762;38.084;2022-09-09T09:10:09;0.50;;;0.50;;
53010;SDS011;42803;55.762;38.084;2022-09-09T09:13:07;0.65;;;0.65;;
53010;SDS011;42803;55.762;38.084;2022-09-09T09:15:40;0.70;;;0.70;;
53010;SDS011;42803;55.762;38.084;2022-09-09T09:18:12;3.53;;;0.77;;
53010;SDS011;42803;55.762;38.084;2022-09-09T09:20:47;0.75;;;0.60;;
53010;SDS011;42803;55.762;38.084;2022-09-09T09:23:25;1.02;;;0.70;;
53010;SDS011;42803;55.762;38.084;2022-09-09T09:26:00;0.65;;;0.65;;
53010;SDS011;42803;55.762;38.084;2022-09-09T09:28:30;0.70;;;0.70;;
53010;SDS011;42803;55.762;38.084;2022-09-09T09:31:10;1.90;;;1.10;;
53010;SDS011;42803;55.762;38.084;2022-09-09T09:33:46;1.67;;;0.90;;
53010;SDS011;42803;55.762;38.084;2022-09-09T09:36:19;1.90;;;0.90;;
53010;SDS011;42803;55.762;38.084;2022-09-09T09:38:54;0.93;;;0.75;;
53010;SDS011;42803;55.762;38.084;2022-09-09T09:41:48;1.02;;;0.80;;
53010;SDS011;42803;55.762;38.084;2022-09-09T09:44:24;1.75;;;0.70;;
53010;SDS011;42803;55.762;38.084;2022-09-09T09:47:06;0.73;;;0.70;;
53010;SDS011;42803;55.762;38.084;2022-09-09T09:49:36;0.75;;;0.70;;
53010;SDS011;42803;55.762;38.084;2022-09-09T09:52:06;0.77;;;0.68;;
53010;SDS011;42803;55.762;38.084;2022-09-09T09:54:46;1.65;;;1.00;;
53010;SDS011;42803;55.762;38.084;2022-09-09T09:57:16;1.73;;;0.85;;
53010;SDS011;42803;55.762;38.084;2022-09-09T09:59:46;0.88;;;0.70;;
53010;SDS011;42803;55.762;38.084;2022-09-09T10:02:24;0.95;;;0.60;;
53010;SDS011;42803;55.762;38.084;2022-09-09T10:05:08;0.98;;;0.60;;
53010;SDS011;42803;55.762;38.084;2022-09-09T10:07:46;1.25;;;0.70;;
53010;SDS011;42803;55.762;38.084;2022-09-09T10:10:19;1.48;;;0.93;;
53010;SDS011;42803;55.762;38.084;2022-09-09T10:12:55;0.90;;;0.70;;
53010;SDS011;42803;55.762;38.084;2022-09-09T10:15:34;0.60;;;0.60;;
53010;SDS011;42803;55.762;38.084;2022-09-09T10:18:18;2.35;;;0.60;;
53010;SDS011;42803;55.762;38.084;2022-09-09T10:21:00;2.38;;;0.52;;
53010;SDS011;42803;55.762;38.084;2022-09-09T10:23:41;0.75;;;0.70;;
53010;SDS011;42803;55.762;38.084;2022-09-09T10:26:26;0.82;;;0.75;;
53010;SDS011;42803;55.762;38.084;2022-09-09T10:32:03;0.80;;;0.60;;
53010;SDS011;42803;55.762;38.084;2022-09-09T10:34:50;1.25;;;0.70;;
53010;SDS011;42803;55.762;38.084;2022-09-09T10:37:28;0.65;;;0.60;;
53010;SDS011;42803;55.762;38.084;2022-09-09T10:40:12;0.95;;;0.60;;
53010;SDS011;42803;55.762;38.084;2022-09-09T10:42:53;0.45;;;0.45;;
53010;SDS011;42803;55.762;38.084;2022-09-09T10:45:30;1.23;;;0.57;;
53010;SDS011;42803;55.762;38.084;2022-09-09T10:48:09;0.60;;;0.60;;
53010;SDS011;42803;55.762;38.084;2022-09-09T10:51:01;2.08;;;0.55;;
53010;SDS011;42803;55.762;38.084;2022-09-09T10:53:46;1.27;;;0.85;;
53010;SDS011;42803;55.762;38.084;2022-09-09T10:56:21;0.80;;;0.63;;
53010;SDS011;42803;55.762;38.084;2022-09-09T10:58:55;1.73;;;0.70;;
53010;SDS011;42803;55.762;38.084;2022-09-09T11:01:29;0.65;;;0.60;;
53010;SDS011;42803;55.762;38.084;2022-09-09T11:04:05;0.90;;;0.40;;
53010;SDS011;42803;55.762;38.084;2022-09-09T11:06:43;1.92;;;0.65;;
53010;SDS011;42803;55.762;38.084;2022-09-09T11:09:22;0.75;;;0.60;;
53010;SDS011;42803;55.762;38.084;2022-09-09T11:11:57;0.85;;;0.65;;
53010;SDS011;42803;55.762;38.084;2022-09-09T11:14:32;2.92;;;0.75;;
53010;SDS011;42803;55.762;38.084;2022-09-09T11:17:10;0.90;;;0.60;;
53010;SDS011;42803;55.762;38.084;2022-09-09T11:19:44;0.65;;;0.65;;
53010;SDS011;42803;55.762;38.084;2022-09-09T11:22:16;1.38;;;0.93;;
53010;SDS011;42803;55.762;38.084;2022-09-09T11:25:04;2.47;;;0.70;;
53010;SDS011;42803;55.762;38.084;2022-09-09T11:27:37;4.03;;;1.63;;
53010;SDS011;42803;55.762;38.084;2022-09-09T11:30:22;0.80;;;0.50;;
53010;SDS011;42803;55.762;38.084;2022-09-09T11:36:34;1.38;;;0.70;;
53010;SDS011;42803;55.762;38.084;2022-09-09T11:39:20;0.60;;;0.60;;
53010;SDS011;42803;55.762;38.084;2022-09-09T11:42:15;1.23;;;0.40;;
53010;SDS011;42803;55.762;38.084;2022-09-09T11:44:47;0.50;;;0.50;;
53010;SDS011;42803;55.762;38.084;2022-09-09T11:47:20;4.72;;;0.93;;
53010;SDS011;42803;55.762;38.084;2022-09-09T11:50:07;0.70;;;0.70;;
53010;SDS011;42803;55.762;38.084;2022-09-09T11:52:37;1.33;;;0.82;;
53010;SDS011;42803;55.762;38.084;2022-09-09T11:55:10;1.67;;;0.73;;
53010;SDS011;42803;55.762;38.084;2022-09-09T11:57:40;1.35;;;0.82;;
53010;SDS011;42803;55.762;38.084;2022-09-09T12:03:05;1.92;;;0.60;;
53010;SDS011;42803;55.762;38.084;2022-09-09T12:05:56;0.95;;;0.70;;
53010;SDS011;42803;55.762;38.084;2022-09-09T12:08:28;0.60;;;0.60;;
53010;SDS011;42803;55.762;38.084;2022-09-09T12:10:58;0.75;;;0.70;;
53010;SDS011;42803;55.762;38.084;2022-09-09T12:13:31;1.17;;;0.82;;
53010;SDS011;42803;55.762;38.084;2022-09-09T12:16:01;0.70;;;0.65;;
53010;SDS011;42803;55.762;38.084;2022-09-09T12:18:34;2.30;;;1.40;;
53010;SDS011;42803;55.762;38.084;2022-09-09T12:21:06;3.65;;;2.20;;
53010;SDS011;42803;55.762;38.084;2022-09-09T12:23:44;1.20;;;0.85;;
53010;SDS011;42803;55.762;38.084;2022-09-09T12:26:23;2.08;;;0.90;;
53010;SDS011;42803;55.762;38.084;2022-09-09T12:29:01;2.25;;;1.10;;
53010;SDS011;42803;55.762;38.084;2022-09-09T12:31:41;2.50;;;1.23;;
53010;SDS011;42803;55.762;38.084;2022-09-09T12:34:17;1.95;;;1.45;;
53010;SDS011;42803;55.762;38.084;2022-09-09T12:36:55;1.75;;;0.85;;
53010;SDS011;42803;55.762;38.084;2022-09-09T12:39:36;1.10;;;0.80;;
53010;SDS011;42803;55.762;38.084;2022-09-09T12:42:15;0.60;;;0.50;;
53010;SDS011;42803;55.762;38.084;2022-09-09T12:44:55;1.80;;;0.75;;
53010;SDS011;42803;55.762;38.084;2022-09-09T12:47:28;1.40;;;0.82;;
53010;SDS011;42803;55.762;38.084;2022-09-09T12:50:10;1.65;;;1.15;;
53010;SDS011;42803;55.762;38.084;2022-09-09T12:52:44;0.70;;;0.60;;
53010;SDS011;42803;55.762;38.084;2022-09-09T12:55:16;2.58;;;1.30;;
53010;SDS011;42803;55.762;38.084;2022-09-09T12:57:48;5.15;;;1.70;;
53010;SDS011;42803;55.762;38.084;2022-09-09T13:00:19;1.30;;;0.80;;
53010;SDS011;42803;55.762;38.084;2022-09-09T13:02:50;1.92;;;0.68;;
53010;SDS011;42803;55.762;38.084;2022-09-09T13:05:23;1.20;;;0.80;;
53010;SDS011;42803;55.762;38.084;2022-09-09T13:08:00;0.60;;;0.60;;
53010;SDS011;42803;55.762;38.084;2022-09-09T13:10:31;1.55;;;0.80;;
53010;SDS011;42803;55.762;38.084;2022-09-09T13:13:21;1.05;;;0.85;;
53010;SDS011;42803;55.762;38.084;2022-09-09T13:15:53;0.80;;;0.65;;
53010;SDS011;42803;55.762;38.084;2022-09-09T13:18:25;1.23;;;0.80;;
53010;SDS011;42803;55.762;38.084;2022-09-09T13:20:58;2.70;;;0.60;;
53010;SDS011;42803;55.762;38.084;2022-09-09T13:23:28;1.02;;;0.60;;
53010;SDS011;42803;55.762;38.084;2022-09-09T13:26:00;1.75;;;0.80;;
53010;SDS011;42803;55.762;38.084;2022-09-09T13:28:33;0.90;;;0.65;;
53010;SDS011;42803;55.762;38.084;2022-09-09T13:31:03;0.60;;;0.60;;
53010;SDS011;42803;55.762;38.084;2022-09-09T13:33:34;1.75;;;0.60;;
53010;SDS011;42803;55.762;38.084;2022-09-09T13:36:06;1.10;;;0.75;;
53010;SDS011;42803;55.762;38.084;2022-09-09T13:38:38;0.95;;;0.73;;
53010;SDS011;42803;55.762;38.084;2022-09-09T13:41:22;1.85;;;0.70;;
53010;SDS011;42803;55.762;38.084;2022-09-09T13:43:52;1.02;;;0.80;;
53010;SDS011;42803;55.762;38.084;2022-09-09T13:46:24;1.35;;;0.85;;
53010;SDS011;42803;55.762;38.084;2022-09-09T13:48:58;1.27;;;1.00;;
53010;SDS011;42803;55.762;38.084;2022-09-09T13:51:32;1.17;;;1.08;;
53010;SDS011;42803;55.762;38.084;2022-09-09T13:54:04;1.95;;;1.08;;
53010;SDS011;42803;55.762;38.084;2022-09-09T13:56:34;3.80;;;1.80;;
53010;SDS011;42803;55.762;38.084;2022-09-09T13:59:05;3.67;;;1.75;;
53010;SDS011;42803;55.762;38.084;2022-09-09T14:01:40;3.58;;;1.83;;
53010;SDS011;42803;55.762;38.084;2022-09-09T14:04:09;4.57;;;1.70;;
53010;SDS011;42803;55.762;38.084;2022-09-09T14:06:40;3.60;;;1.35;;
53010;SDS011;42803;55.762;38.084;2022-09-09T14:09:11;2.67;;;1.38;;
53010;SDS011;42803;55.762;38.084;2022-09-09T14:11:43;1.55;;;1.17;;
53010;SDS011;42803;55.762;38.084;2022-09-09T14:14:12;1.85;;;0.93;;
53010;SDS011;42803;55.762;38.084;2022-09-09T14:16:42;0.60;;;0.60;;
53010;SDS011;42803;55.762;38.084;2022-09-09T14:19:11;1.67;;;1.13;;
53010;SDS011;42803;55.762;38.084;2022-09-09T14:21:42;0.88;;;0.70;;
53010;SDS011;42803;55.762;38.084;2022-09-09T14:24:11;1.08;;;0.70;;
53010;SDS011;42803;55.762;38.084;2022-09-09T14:26:41;0.85;;;0.70;;
53010;SDS011;42803;55.762;38.084;2022-09-09T14:29:10;0.80;;;0.70;;
53010;SDS011;42803;55.762;38.084;2022-09-09T14:31:39;1.98;;;1.10;;
53010;SDS011;42803;55.762;38.084;2022-09-09T14:34:08;2.75;;;0.82;;
53010;SDS011;42803;55.762;38.084;2022-09-09T14:36:38;2.67;;;1.20;;
53010;SDS011;42803;55.762;38.084;2022-09-09T14:39:09;1.38;;;0.90;;
53010;SDS011;42803;55.762;38.084;2022-09-09T14:41:38;1.08;;;0.98;;
53010;SDS011;42803;55.762;38.084;2022-09-09T14:44:07;2.42;;;1.30;;
53010;SDS011;42803;55.762;38.084;2022-09-09T14:46:37;1.52;;;0.85;;
53010;SDS011;42803;55.762;38.084;2022-09-09T14:49:06;2.83;;;1.10;;
53010;SDS011;42803;55.762;38.084;2022-09-09T14:51:35;1.88;;;1.10;;
53010;SDS011;42803;55.762;38.084;2022-09-09T14:54:04;1.55;;;1.10;;
53010;SDS011;42803;55.762;38.084;2022-09-09T14:56:35;1.23;;;0.88;;
53010;SDS011;42803;55.762;38.084;2022-09-09T14:59:04;2.03;;;1.17;;
53010;SDS011;42803;55.762;38.084;2022-09-09T15:01:33;1.73;;;1.00;;
53010;SDS011;42803;55.762;38.084;2022-09-09T15:04:03;2.92;;;0.85;;
53010;SDS011;42803;55.762;38.084;2022-09-09T15:06:34;2.00;;;0.80;;
53010;SDS011;42803;55.762;38.084;2022-09-09T15:09:05;0.93;;;0.80;;
53010;SDS011;42803;55.762;38.084;2022-09-09T15:11:36;1.52;;;0.90;;
53010;SDS011;42803;55.762;38.084;2022-09-09T15:14:06;1.70;;;1.00;;
53010;SDS011;42803;55.762;38.084;2022-09-09T15:16:39;1.23;;;1.00;;
53010;SDS011;42803;55.762;38.084;2022-09-09T15:19:08;1.95;;;1.15;;
53010;SDS011;42803;55.762;38.084;2022-09-09T15:21:38;1.63;;;1.00;;
53010;SDS011;42803;55.762;38.084;2022-09-09T15:24:07;1.38;;;0.85;;